createdAt,value
2022-12-10T00:00:10.655Z,0.13
2022-12-10T00:02:38.575Z,0.16
2022-12-10T00:05:07.261Z,0.15
2022-12-10T00:07:35.100Z,0.20
2022-12-10T00:10:06.204Z,0.09
2022-12-10T00:12:39.681Z,0.05
2022-12-10T00:15:08.234Z,0.05
2022-12-10T00:17:35.930Z,0.07
2022-12-10T00:20:10.869Z,0.14
2022-12-10T00:22:38.760Z,0.22
2022-12-10T00:25:06.890Z,0.26
2022-12-10T00:27:34.597Z,0.20
2022-12-10T00:30:03.769Z,0.17
2022-12-10T00:32:31.533Z,0.16
2022-12-10T00:35:00.883Z,0.25
2022-12-10T00:37:28.613Z,0.22
2022-12-10T00:39:56.350Z,0.22
2022-12-10T00:42:24.028Z,0.15
2022-12-10T00:44:51.797Z,0.14
2022-12-10T00:47:20.917Z,0.14
2022-12-10T00:49:48.612Z,0.21
2022-12-10T00:52:16.336Z,0.14
2022-12-10T00:54:44.019Z,0.15
2022-12-10T00:57:12.208Z,0.21
2022-12-10T00:59:39.889Z,0.23
2022-12-10T01:02:07.662Z,0.32
2022-12-10T01:04:36.790Z,0.31
2022-12-10T01:07:11.431Z,0.22
2022-12-10T01:09:39.301Z,0.18
2022-12-10T01:12:07.643Z,0.17
2022-12-10T01:14:35.712Z,0.17
2022-12-10T01:17:05.629Z,0.18
2022-12-10T01:19:35.068Z,0.17
2022-12-10T01:22:06.506Z,0.19
2022-12-10T01:24:35.295Z,0.17
2022-12-10T01:27:03.123Z,0.14
2022-12-10T01:29:31.109Z,0.13
2022-12-10T01:31:59.569Z,0.11
2022-12-10T01:34:27.472Z,0.10
2022-12-10T01:36:55.961Z,0.11
2022-12-10T01:39:29.087Z,0.10
2022-12-10T01:41:59.098Z,0.09
2022-12-10T01:45:04.305Z,0.10
2022-12-10T01:47:32.035Z,0.15
2022-12-10T01:49:59.864Z,0.21
2022-12-10T01:52:27.761Z,0.24
2022-12-10T01:54:57.383Z,0.29
2022-12-10T01:57:27.570Z,0.21
2022-12-10T01:59:58.529Z,0.20
2022-12-10T02:02:48.471Z,0.16
2022-12-10T02:05:26.311Z,0.17
2022-12-10T02:08:12.079Z,0.14
2022-12-10T02:10:59.231Z,0.11
2022-12-10T02:13:31.796Z,0.10
2022-12-10T02:16:05.525Z,0.11
2022-12-10T02:18:38.674Z,0.14
2022-12-10T02:21:12.112Z,0.13
2022-12-10T02:23:47.351Z,0.13
2022-12-10T02:26:24.778Z,0.09
2022-12-10T02:29:05.804Z,0.10
2022-12-10T02:31:34.770Z,0.12
2022-12-10T02:34:06.032Z,0.14
2022-12-10T02:36:41.824Z,0.18
2022-12-10T02:39:13.259Z,0.20
2022-12-10T02:41:48.720Z,0.20
2022-12-10T02:44:18.917Z,0.17
2022-12-10T02:46:49.940Z,0.14
2022-12-10T02:49:19.674Z,0.14
2022-12-10T02:51:47.345Z,0.17
2022-12-10T02:54:38.469Z,0.18
2022-12-10T02:57:15.609Z,0.19
2022-12-10T02:59:58.456Z,0.15
2022-12-10T03:02:34.002Z,0.12
2022-12-10T03:05:07.980Z,0.19
2022-12-10T03:07:40.745Z,0.14
2022-12-10T03:10:15.855Z,0.14
2022-12-10T03:12:51.332Z,0.12
2022-12-10T03:15:21.598Z,0.14
2022-12-10T03:17:50.813Z,0.17
2022-12-10T03:20:19.856Z,0.16
2022-12-10T03:22:49.555Z,0.15
2022-12-10T03:25:20.966Z,0.18
2022-12-10T03:27:51.812Z,0.18
2022-12-10T03:30:20.903Z,0.17
2022-12-10T03:32:48.829Z,0.23
2022-12-10T03:35:19.970Z,0.18
2022-12-10T03:37:50.635Z,0.21
2022-12-10T03:40:22.066Z,0.13
2022-12-10T03:42:52.645Z,0.12
2022-12-10T03:45:21.930Z,0.14
2022-12-10T03:47:50.439Z,0.13
2022-12-10T03:50:18.391Z,0.13
2022-12-10T03:52:46.043Z,0.16
2022-12-10T03:55:13.787Z,0.16
2022-12-10T03:57:43.515Z,0.16
2022-12-10T04:00:12.644Z,0.15
2022-12-10T04:02:41.823Z,0.17
2022-12-10T04:05:10.115Z,0.17
2022-12-10T04:07:37.970Z,0.17
2022-12-10T04:10:06.838Z,0.17
2022-12-10T04:12:34.872Z,0.15
2022-12-10T04:15:22.750Z,0.14
2022-12-10T04:17:51.874Z,0.19
2022-12-10T04:20:37.175Z,0.17
2022-12-10T04:23:22.653Z,0.26
2022-12-10T04:26:07.952Z,0.23
2022-12-10T04:28:35.658Z,0.18
2022-12-10T04:31:03.435Z,0.20
2022-12-10T04:33:35.332Z,0.20
2022-12-10T04:36:03.034Z,0.21
2022-12-10T04:38:30.981Z,0.24
2022-12-10T04:40:58.721Z,0.24
2022-12-10T04:43:26.418Z,0.23
2022-12-10T04:45:57.664Z,0.20
2022-12-10T04:48:25.430Z,0.23
2022-12-10T04:50:54.505Z,0.23
2022-12-10T04:53:23.514Z,0.20
2022-12-10T04:55:51.208Z,0.21
2022-12-10T04:58:18.921Z,0.24
2022-12-10T05:00:46.617Z,0.24
2022-12-10T05:03:14.391Z,0.28
2022-12-10T05:05:42.147Z,0.24
2022-12-10T05:08:11.342Z,0.23
2022-12-10T05:10:39.048Z,0.22
2022-12-10T05:13:06.746Z,0.23
2022-12-10T05:15:34.497Z,0.26
2022-12-10T05:18:02.276Z,0.20
2022-12-10T05:20:32.757Z,0.22
2022-12-10T05:23:18.034Z,0.29
2022-12-10T05:25:54.576Z,0.25
2022-12-10T05:28:22.414Z,0.29
2022-12-10T05:30:50.532Z,0.25
2022-12-10T05:33:18.339Z,0.27
2022-12-10T05:35:46.084Z,0.23
2022-12-10T05:38:13.832Z,0.24
2022-12-10T05:40:41.532Z,0.26
2022-12-10T05:43:10.578Z,0.20
2022-12-10T05:45:38.317Z,0.20
2022-12-10T05:48:06.973Z,0.19
2022-12-10T05:50:34.972Z,0.19
2022-12-10T05:53:02.732Z,0.24
2022-12-10T05:55:32.462Z,0.20
2022-12-10T05:58:00.562Z,0.18
2022-12-10T06:00:30.307Z,0.16
2022-12-10T06:02:58.110Z,0.19
2022-12-10T06:05:25.865Z,0.18
2022-12-10T06:07:53.854Z,0.11
2022-12-10T06:10:21.533Z,0.05
2022-12-10T06:12:49.314Z,0.07
2022-12-10T06:15:17.158Z,0.09
2022-12-10T06:17:46.254Z,0.09
2022-12-10T06:20:13.971Z,0.10
2022-12-10T06:22:41.715Z,0.12
2022-12-10T06:25:10.249Z,0.15
2022-12-10T06:27:40.262Z,0.10
2022-12-10T06:30:09.734Z,0.13
2022-12-10T06:32:37.646Z,0.12
2022-12-10T06:35:08.051Z,0.09
2022-12-10T06:37:35.786Z,0.09
2022-12-10T06:40:03.932Z,0.10
2022-12-10T06:42:31.651Z,0.18
2022-12-10T06:44:59.469Z,0.14
2022-12-10T06:47:27.152Z,0.05
2022-12-10T06:49:54.902Z,0.05
2022-12-10T06:52:23.963Z,0.09
2022-12-10T06:54:56.083Z,0.08
2022-12-10T06:57:23.812Z,0.03
2022-12-10T06:59:51.543Z,0.08
2022-12-10T07:02:19.463Z,0.10
2022-12-10T07:04:47.257Z,0.14
2022-12-10T07:07:15.014Z,0.17
2022-12-10T07:09:44.036Z,0.17
2022-12-10T07:12:11.776Z,0.22
2022-12-10T07:14:39.522Z,0.24
2022-12-10T07:17:07.263Z,0.19
2022-12-10T07:19:35.088Z,0.19
2022-12-10T07:22:02.923Z,0.27
2022-12-10T07:24:30.985Z,0.23
2022-12-10T07:27:00.146Z,0.24
2022-12-10T07:29:28.206Z,0.22
2022-12-10T07:31:56.600Z,0.21
2022-12-10T07:34:24.707Z,0.23
2022-12-10T07:36:52.586Z,0.23
2022-12-10T07:39:20.396Z,0.26
2022-12-10T07:41:51.025Z,0.31
2022-12-10T07:44:22.050Z,0.27
2022-12-10T07:46:50.634Z,0.30
2022-12-10T07:49:18.732Z,0.32
2022-12-10T07:51:47.606Z,0.32
2022-12-10T07:54:15.673Z,0.27
2022-12-10T07:56:43.701Z,0.29
2022-12-10T07:59:12.078Z,0.30
2022-12-10T08:01:42.197Z,0.34
2022-12-10T08:04:09.887Z,0.37
2022-12-10T08:06:37.766Z,0.41
2022-12-10T08:09:05.494Z,0.41
2022-12-10T08:11:33.522Z,0.45
2022-12-10T08:14:01.237Z,0.60
2022-12-10T08:16:32.031Z,0.61
2022-12-10T08:19:02.789Z,0.67
2022-12-10T08:21:32.267Z,0.67
2022-12-10T08:24:01.122Z,0.69
2022-12-10T08:26:34.051Z,0.77
2022-12-10T08:29:04.877Z,0.74
2022-12-10T08:31:37.421Z,0.79
2022-12-10T08:34:12.858Z,0.88
2022-12-10T08:36:40.747Z,0.98
2022-12-10T08:39:08.528Z,0.99
2022-12-10T08:41:36.224Z,1.04
2022-12-10T08:44:04.306Z,1.04
2022-12-10T08:46:32.176Z,1.07
2022-12-10T08:49:00.204Z,0.98
2022-12-10T08:51:29.839Z,0.90
2022-12-10T08:53:57.648Z,0.92
2022-12-10T08:56:25.548Z,0.91
2022-12-10T08:58:53.315Z,0.99
2022-12-10T09:01:21.187Z,1.02
2022-12-10T09:03:49.280Z,1.07
2022-12-10T09:06:24.955Z,1.19
2022-12-10T09:08:54.384Z,1.24
2022-12-10T09:11:24.846Z,1.10
2022-12-10T09:13:52.963Z,1.01
2022-12-10T09:16:21.199Z,0.87
2022-12-10T09:18:49.025Z,0.68
2022-12-10T09:21:18.751Z,0.76
2022-12-10T09:23:46.641Z,0.71
2022-12-10T09:26:21.036Z,0.78
2022-12-10T09:28:49.418Z,0.73
2022-12-10T09:31:20.328Z,0.75
2022-12-10T09:33:50.654Z,0.86
2022-12-10T09:36:19.120Z,0.84
2022-12-10T09:38:48.276Z,0.79
2022-12-10T09:41:40.654Z,0.79
2022-12-10T09:44:18.543Z,0.80
2022-12-10T09:46:52.729Z,0.73
2022-12-10T09:49:30.635Z,0.76
2022-12-10T09:52:01.605Z,0.79
2022-12-10T09:54:33.251Z,0.88
2022-12-10T09:57:03.318Z,0.94
2022-12-10T09:59:34.882Z,0.86
2022-12-10T10:02:14.815Z,0.84
2022-12-10T10:04:42.527Z,0.79
2022-12-10T10:07:21.419Z,0.80
2022-12-10T10:09:49.987Z,0.78
2022-12-10T10:12:19.055Z,0.90
2022-12-10T10:14:47.256Z,0.92
2022-12-10T10:17:20.988Z,0.91
2022-12-10T10:19:50.216Z,0.93
2022-12-10T10:22:18.033Z,1.02
2022-12-10T10:24:50.498Z,0.92
2022-12-10T10:27:22.660Z,0.92
2022-12-10T10:29:57.681Z,0.89
2022-12-10T10:32:26.804Z,0.87
2022-12-10T10:34:56.274Z,0.88
2022-12-10T10:37:28.120Z,0.86
2022-12-10T10:39:56.052Z,0.83
2022-12-10T10:42:33.034Z,0.92
2022-12-10T10:45:00.985Z,0.92
2022-12-10T10:47:34.816Z,0.90
2022-12-10T10:50:03.447Z,0.94
2022-12-10T10:52:32.491Z,1.00
2022-12-10T10:55:00.405Z,1.11
2022-12-10T10:57:34.998Z,1.09
2022-12-10T11:00:10.081Z,1.15
2022-12-10T11:02:39.355Z,1.19
2022-12-10T11:05:08.944Z,1.20
2022-12-10T11:07:38.528Z,1.10
2022-12-10T11:10:18.875Z,1.19
2022-12-10T11:12:57.333Z,1.20
2022-12-10T11:15:34.798Z,1.22
2022-12-10T11:18:04.430Z,1.32
2022-12-10T11:20:41.642Z,1.30
2022-12-10T11:23:15.638Z,1.32
2022-12-10T11:25:55.869Z,1.28
2022-12-10T11:28:39.568Z,1.30
2022-12-10T11:31:22.480Z,1.32
2022-12-10T11:33:58.909Z,1.37
2022-12-10T11:36:38.175Z,1.47
2022-12-10T11:39:18.680Z,1.53
2022-12-10T11:41:52.778Z,1.40
2022-12-10T11:44:29.540Z,1.32
2022-12-10T11:47:31.736Z,1.32
2022-12-10T11:50:13.226Z,1.34
2022-12-10T11:52:51.401Z,1.30
2022-12-10T11:55:29.055Z,1.28
2022-12-10T11:58:11.545Z,1.26
2022-12-10T12:00:52.372Z,1.25
2022-12-10T12:03:44.435Z,1.19
2022-12-10T12:06:33.186Z,1.17
2022-12-10T12:09:07.774Z,1.18
2022-12-10T12:11:52.289Z,1.15
2022-12-10T12:14:26.267Z,1.10
2022-12-10T12:17:04.481Z,1.00
2022-12-10T12:19:38.564Z,0.93
2022-12-10T12:22:23.446Z,0.95
2022-12-10T12:24:55.914Z,0.93
2022-12-10T12:27:29.390Z,0.97
2022-12-10T12:30:05.915Z,1.04
2022-12-10T12:32:44.064Z,1.02
2022-12-10T12:35:17.053Z,1.07
2022-12-10T12:37:50.186Z,0.97
2022-12-10T12:40:29.506Z,0.91
2022-12-10T12:43:02.499Z,0.78
2022-12-10T12:45:38.806Z,0.80
2022-12-10T12:48:21.841Z,0.65
2022-12-10T12:50:53.379Z,0.60
2022-12-10T12:53:24.403Z,0.61
2022-12-10T12:56:00.021Z,0.57
2022-12-10T12:58:39.804Z,0.55
2022-12-10T13:01:20.521Z,0.59
2022-12-10T13:03:51.842Z,0.51
2022-12-10T13:06:24.187Z,0.47
2022-12-10T13:08:55.324Z,0.39
2022-12-10T13:11:35.709Z,0.40
2022-12-10T13:14:32.130Z,0.45
2022-12-10T13:17:10.461Z,0.48
2022-12-10T13:19:42.073Z,0.47
2022-12-10T13:22:12.647Z,0.39
2022-12-10T13:25:09.041Z,0.33
2022-12-10T13:27:36.748Z,0.32
2022-12-10T13:30:27.721Z,0.34
2022-12-10T13:33:04.998Z,0.25
2022-12-10T13:35:44.474Z,0.26
2022-12-10T13:38:22.997Z,0.25
2022-12-10T13:41:18.375Z,0.30
2022-12-10T13:44:12.096Z,0.26
2022-12-10T13:46:56.359Z,0.29
2022-12-10T13:49:26.340Z,0.26
2022-12-10T13:52:00.619Z,0.25
2022-12-10T13:54:50.634Z,0.23
2022-12-10T13:57:33.633Z,0.31
2022-12-10T14:00:10.814Z,0.31
2022-12-10T14:03:05.354Z,0.25
2022-12-10T14:05:50.840Z,0.25
2022-12-10T14:08:25.814Z,0.19
2022-12-10T14:10:53.994Z,0.14
2022-12-10T14:13:23.973Z,0.15
2022-12-10T14:15:56.415Z,0.18
2022-12-10T14:18:25.500Z,0.13
2022-12-10T14:20:55.618Z,0.09
2022-12-10T14:23:46.200Z,0.13
2022-12-10T14:26:16.113Z,0.07
2022-12-10T14:28:47.468Z,0.12
2022-12-10T14:31:18.881Z,0.08
2022-12-10T14:33:51.908Z,0.12
2022-12-10T14:36:28.486Z,0.13
2022-12-10T14:38:57.946Z,0.07
2022-12-10T14:41:26.294Z,0.08
2022-12-10T14:43:54.541Z,0.08
2022-12-10T14:46:26.115Z,0.10
2022-12-10T14:48:55.669Z,0.16
2022-12-10T14:51:26.222Z,0.10
2022-12-10T14:53:55.543Z,0.07
2022-12-10T14:56:28.987Z,0.12
2022-12-10T14:59:04.464Z,0.08
2022-12-10T15:01:33.391Z,0.00
2022-12-10T15:04:03.865Z,0.05
2022-12-10T15:06:36.290Z,0.02
2022-12-10T15:09:07.430Z,0.05
2022-12-10T15:11:36.575Z,-0.02
2022-12-10T15:14:05.769Z,0.04
2022-12-10T15:16:41.881Z,-0.01
2022-12-10T15:19:20.718Z,0.05
2022-12-10T15:21:50.290Z,-0.02
2022-12-10T15:24:21.520Z,-0.07
2022-12-10T15:26:52.121Z,-0.03
2022-12-10T15:29:43.576Z,-0.04
2022-12-10T15:32:18.468Z,-0.06
2022-12-10T15:34:49.706Z,-0.11
2022-12-10T15:37:22.627Z,0.00
2022-12-10T15:39:53.748Z,-0.08
2022-12-10T15:42:40.708Z,-0.06
2022-12-10T15:45:24.410Z,-0.04
2022-12-10T15:47:52.196Z,-0.10
2022-12-10T15:50:20.471Z,-0.11
2022-12-10T15:52:48.552Z,-0.14
2022-12-10T15:55:17.096Z,-0.12
2022-12-10T15:57:49.981Z,-0.12
2022-12-10T16:00:22.132Z,-0.06
2022-12-10T16:02:52.228Z,-0.20
2022-12-10T16:05:22.753Z,-0.20
2022-12-10T16:07:52.930Z,-0.28
2022-12-10T16:10:21.955Z,-0.29
2022-12-10T16:12:55.467Z,-0.27
2022-12-10T16:15:26.660Z,-0.26
2022-12-10T16:17:54.338Z,-0.29
2022-12-10T16:20:26.787Z,-0.38
2022-12-10T16:22:54.734Z,-0.47
2022-12-10T16:25:23.162Z,-0.43
2022-12-10T16:27:52.761Z,-0.42
2022-12-10T16:30:23.213Z,-0.39
2022-12-10T16:32:51.148Z,-0.47
2022-12-10T16:35:19.437Z,-0.53
2022-12-10T16:37:49.978Z,-0.51
2022-12-10T16:40:20.452Z,-0.61
2022-12-10T16:42:48.940Z,-0.55
2022-12-10T16:45:22.487Z,-0.56
2022-12-10T16:47:50.482Z,-0.58
2022-12-10T16:50:19.261Z,-0.61
2022-12-10T16:52:47.318Z,-0.60
2022-12-10T16:55:18.919Z,-0.58
2022-12-10T16:57:46.941Z,-0.58
2022-12-10T17:00:22.345Z,-0.65
2022-12-10T17:02:52.737Z,-0.68
2022-12-10T17:05:28.321Z,-0.64
2022-12-10T17:07:56.128Z,-0.73
2022-12-10T17:10:44.568Z,-0.74
2022-12-10T17:13:13.580Z,-0.83
2022-12-10T17:15:43.834Z,-0.83
2022-12-10T17:19:04.136Z,-0.88
2022-12-10T17:21:37.067Z,-0.85
2022-12-10T17:24:08.851Z,-0.83
2022-12-10T17:26:41.178Z,-0.91
2022-12-10T17:29:17.672Z,-0.89
2022-12-10T17:31:50.724Z,-0.91
2022-12-10T17:34:18.493Z,-0.96
2022-12-10T17:36:46.175Z,-0.98
2022-12-10T17:39:20.446Z,-0.97
2022-12-10T17:41:50.586Z,-0.99
2022-12-10T17:44:18.407Z,-0.96
2022-12-10T17:46:47.482Z,-0.93
2022-12-10T17:49:17.479Z,-0.90
2022-12-10T17:51:46.042Z,-0.86
2022-12-10T17:54:19.831Z,-0.89
2022-12-10T17:56:47.572Z,-0.88
2022-12-10T17:59:17.747Z,-1.00
2022-12-10T18:01:49.044Z,-0.99
2022-12-10T18:04:17.207Z,-0.98
2022-12-10T18:06:44.945Z,-1.00
2022-12-10T18:09:13.606Z,-1.01
2022-12-10T18:11:44.458Z,-1.08
2022-12-10T18:14:15.002Z,-1.07
2022-12-10T18:16:42.798Z,-1.03
2022-12-10T18:19:15.756Z,-0.96
2022-12-10T18:21:43.994Z,-0.97
2022-12-10T18:24:11.752Z,-0.99
2022-12-10T18:26:39.542Z,-1.05
2022-12-10T18:29:08.988Z,-0.99
2022-12-10T18:31:38.149Z,-0.97
2022-12-10T18:34:07.437Z,-1.05
2022-12-10T18:36:38.104Z,-1.06
2022-12-10T18:39:18.508Z,-1.11
2022-12-10T18:41:49.247Z,-1.20
2022-12-10T18:44:21.835Z,-1.15
2022-12-10T18:46:50.255Z,-1.10
2022-12-10T18:49:19.034Z,-1.09
2022-12-10T18:51:48.167Z,-1.11
2022-12-10T18:54:16.099Z,-1.03
2022-12-10T18:56:47.241Z,-1.12
2022-12-10T18:59:24.889Z,-1.12
2022-12-10T19:01:55.135Z,-1.19
2022-12-10T19:04:24.247Z,-1.18
2022-12-10T19:06:55.166Z,-1.16
2022-12-10T19:09:22.885Z,-1.20
2022-12-10T19:11:51.945Z,-1.23
2022-12-10T19:14:20.952Z,-1.19
2022-12-10T19:16:48.844Z,-1.20
2022-12-10T19:19:21.750Z,-1.23
2022-12-10T19:21:50.196Z,-1.19
2022-12-10T19:24:19.206Z,-1.20
2022-12-10T19:26:48.239Z,-1.20
2022-12-10T19:29:18.401Z,-1.22
2022-12-10T19:31:46.920Z,-1.26
2022-12-10T19:34:15.977Z,-1.14
2022-12-10T19:36:44.409Z,-1.18
2022-12-10T19:39:17.681Z,-1.16
2022-12-10T19:41:46.871Z,-1.20
2022-12-10T19:44:14.923Z,-1.20
2022-12-10T19:46:43.221Z,-1.24
2022-12-10T19:49:13.118Z,-1.20
2022-12-10T19:51:41.009Z,-1.16
2022-12-10T19:54:08.748Z,-1.19
2022-12-10T19:56:36.923Z,-1.20
2022-12-10T19:59:14.884Z,-1.21
2022-12-10T20:01:43.436Z,-1.18
2022-12-10T20:04:14.615Z,-1.18
2022-12-10T20:06:43.861Z,-1.18
2022-12-10T20:09:18.275Z,-1.22
2022-12-10T20:11:46.182Z,-1.22
2022-12-10T20:14:15.382Z,-1.23
2022-12-10T20:16:43.776Z,-1.15
2022-12-10T20:19:16.123Z,-1.22
2022-12-10T20:21:45.905Z,-1.18
2022-12-10T20:24:14.189Z,-1.20
2022-12-10T20:26:44.039Z,-1.19
2022-12-10T20:29:19.087Z,-1.17
2022-12-10T20:31:47.648Z,-1.20
2022-12-10T20:34:15.829Z,-1.24
2022-12-10T20:36:45.790Z,-1.19
2022-12-10T20:39:19.265Z,-1.26
2022-12-10T20:41:47.713Z,-1.24
2022-12-10T20:44:17.343Z,-1.26
2022-12-10T20:46:45.736Z,-1.28
2022-12-10T20:49:14.711Z,-1.23
2022-12-10T20:51:42.764Z,-1.23
2022-12-10T20:54:10.710Z,-1.15
2022-12-10T20:56:39.797Z,-1.16
2022-12-10T20:59:08.402Z,-1.21
2022-12-10T21:01:40.893Z,-1.13
2022-12-10T21:04:08.642Z,-1.24
2022-12-10T21:06:36.832Z,-1.24
2022-12-10T21:09:05.096Z,-1.30
2022-12-10T21:11:32.780Z,-1.34
2022-12-10T21:14:00.538Z,-1.33
2022-12-10T21:16:28.565Z,-1.29
2022-12-10T21:18:58.732Z,-1.36
2022-12-10T21:21:27.896Z,-1.37
2022-12-10T21:23:56.785Z,-1.42
2022-12-10T21:26:24.594Z,-1.37
2022-12-10T21:28:52.363Z,-1.37
2022-12-10T21:31:22.447Z,-1.41
2022-12-10T21:33:50.601Z,-1.36
2022-12-10T21:36:22.143Z,-1.47
2022-12-10T21:38:51.143Z,-1.50
2022-12-10T21:41:43.623Z,-1.46
2022-12-10T21:44:12.577Z,-1.43
2022-12-10T21:46:40.890Z,-1.39
2022-12-10T21:49:10.236Z,-1.36
2022-12-10T21:51:40.649Z,-1.41
2022-12-10T21:54:09.223Z,-1.42
2022-12-10T21:56:37.589Z,-1.42
2022-12-10T21:59:05.775Z,-1.27
2022-12-10T22:01:34.065Z,-1.41
2022-12-10T22:04:01.729Z,-1.38
2022-12-10T22:06:30.244Z,-1.42
2022-12-10T22:08:59.419Z,-1.43
2022-12-10T22:11:30.114Z,-1.44
2022-12-10T22:13:57.824Z,-1.45
2022-12-10T22:16:25.696Z,-1.43
2022-12-10T22:18:53.625Z,-1.38
2022-12-10T22:21:23.751Z,-1.38
2022-12-10T22:23:52.129Z,-1.39
2022-12-10T22:26:21.695Z,-1.36
2022-12-10T22:28:50.176Z,-1.47
2022-12-10T22:31:20.891Z,-1.47
2022-12-10T22:33:48.970Z,-1.44
2022-12-10T22:36:16.856Z,-1.52
2022-12-10T22:38:47.476Z,-1.51
2022-12-10T22:41:16.487Z,-1.52
2022-12-10T22:43:50.902Z,-1.45
2022-12-10T22:46:19.551Z,-1.51
2022-12-10T22:48:47.551Z,-1.52
2022-12-10T22:51:15.395Z,-1.47
2022-12-10T22:53:43.147Z,-1.50
2022-12-10T22:56:13.785Z,-1.55
2022-12-10T23:03:15.867Z,-1.68
2022-12-10T23:05:43.812Z,-1.66
2022-12-10T23:08:11.598Z,-1.64
2022-12-10T23:10:40.945Z,-1.63
2022-12-10T23:13:11.103Z,-1.60
2022-12-10T23:15:41.426Z,-1.66
2022-12-10T23:18:12.478Z,-1.63
2022-12-10T23:20:49.024Z,-1.65
2022-12-10T23:23:17.710Z,-1.61
2022-12-10T23:25:46.506Z,-1.63
2022-12-10T23:28:14.742Z,-1.63
2022-12-10T23:30:42.910Z,-1.70
2022-12-10T23:33:11.076Z,-1.72
2022-12-10T23:35:42.397Z,-1.70
2022-12-10T23:38:10.979Z,-1.67
2022-12-10T23:40:42.336Z,-1.79
2022-12-10T23:43:10.155Z,-1.79
2022-12-10T23:45:39.896Z,-1.81
2022-12-10T23:48:08.206Z,-1.85
2022-12-10T23:50:36.516Z,-1.79
2022-12-10T23:53:06.829Z,-1.87
2022-12-10T23:55:36.284Z,-1.91
2022-12-10T23:58:03.997Z,-1.82
